createdAt,value
2023-03-29T00:01:54.605Z,76.42
2023-03-29T00:04:27.822Z,76.90
2023-03-29T00:06:57.227Z,76.75
2023-03-29T00:09:26.943Z,77.04
2023-03-29T00:11:55.932Z,77.17
2023-03-29T00:14:30.787Z,77.94
2023-03-29T00:17:00.383Z,77.91
2023-03-29T00:19:32.239Z,78.03
2023-03-29T00:22:02.976Z,78.33
2023-03-29T00:24:32.282Z,78.02
2023-03-29T00:27:01.684Z,77.80
2023-03-29T00:29:30.748Z,78.00
2023-03-29T00:31:59.688Z,78.54
2023-03-29T00:34:31.951Z,78.51
2023-03-29T00:37:00.951Z,78.72
2023-03-29T00:39:30.970Z,78.67
2023-03-29T00:41:59.873Z,78.40
2023-03-29T00:44:59.869Z,78.87
2023-03-29T00:47:45.003Z,78.84
2023-03-29T00:50:18.872Z,79.17
2023-03-29T00:53:07.351Z,79.37
2023-03-29T00:55:43.003Z,78.41
2023-03-29T00:58:16.034Z,78.26
2023-03-29T01:00:52.302Z,78.04
2023-03-29T01:03:28.193Z,77.32
2023-03-29T01:06:02.560Z,77.01
2023-03-29T01:08:47.749Z,77.07
2023-03-29T01:11:41.135Z,77.54
2023-03-29T01:14:28.808Z,78.40
2023-03-29T01:16:58.028Z,78.52
2023-03-29T01:19:33.099Z,78.87
2023-03-29T01:22:26.186Z,78.72
2023-03-29T01:25:04.294Z,78.66
2023-03-29T01:27:56.114Z,78.68
2023-03-29T01:30:37.699Z,79.06
2023-03-29T01:33:13.146Z,78.83
2023-03-29T01:35:46.907Z,79.32
2023-03-29T01:38:32.425Z,79.54
2023-03-29T01:41:03.904Z,79.91
2023-03-29T01:43:57.003Z,79.97
2023-03-29T01:46:36.522Z,79.77
2023-03-29T01:49:22.543Z,79.58
2023-03-29T01:52:03.924Z,79.26
2023-03-29T01:54:41.825Z,78.69
2023-03-29T01:57:14.553Z,78.46
2023-03-29T01:59:45.995Z,78.35
2023-03-29T02:02:18.848Z,78.48
2023-03-29T02:04:53.833Z,78.34
2023-03-29T02:07:26.867Z,78.39
2023-03-29T02:09:57.530Z,78.34
2023-03-29T02:12:27.220Z,78.44
2023-03-29T02:14:58.820Z,78.49
2023-03-29T02:17:28.579Z,78.56
2023-03-29T02:20:10.309Z,79.16
2023-03-29T02:22:47.200Z,79.16
2023-03-29T02:25:17.628Z,79.52
2023-03-29T02:27:46.685Z,79.96
2023-03-29T02:30:19.354Z,79.93
2023-03-29T02:33:05.984Z,80.24
2023-03-29T02:35:41.038Z,80.30
2023-03-29T02:38:14.817Z,80.11
2023-03-29T02:40:47.004Z,79.74
2023-03-29T02:43:17.203Z,79.63
2023-03-29T02:45:47.434Z,79.54
2023-03-29T02:48:20.823Z,79.17
2023-03-29T02:50:54.121Z,78.70
2023-03-29T02:53:29.235Z,78.49
2023-03-29T02:56:02.395Z,78.23
2023-03-29T02:58:31.957Z,77.74
2023-03-29T03:01:02.532Z,77.80
2023-03-29T03:03:32.092Z,78.08
2023-03-29T03:06:01.859Z,78.03
2023-03-29T03:08:31.225Z,78.08
2023-03-29T03:11:00.458Z,77.77
2023-03-29T03:13:29.629Z,77.89
2023-03-29T03:15:58.630Z,78.15
2023-03-29T03:18:27.932Z,78.15
2023-03-29T03:20:59.601Z,78.28
2023-03-29T03:23:28.799Z,78.00
2023-03-29T03:25:59.284Z,78.35
2023-03-29T03:28:28.922Z,78.20
2023-03-29T03:30:58.228Z,78.62
2023-03-29T03:33:28.307Z,78.89
2023-03-29T03:36:02.930Z,79.08
2023-03-29T03:38:33.367Z,79.02
2023-03-29T03:41:02.748Z,78.77
2023-03-29T03:43:31.991Z,79.11
2023-03-29T03:46:01.682Z,79.16
2023-03-29T03:48:30.833Z,79.48
2023-03-29T03:50:59.936Z,79.10
2023-03-29T03:53:29.029Z,79.22
2023-03-29T03:55:58.229Z,78.75
2023-03-29T03:58:27.232Z,78.54
2023-03-29T04:00:56.121Z,78.64
2023-03-29T04:03:25.137Z,78.62
2023-03-29T04:05:54.150Z,78.90
2023-03-29T04:08:23.066Z,78.62
2023-03-29T04:10:56.888Z,78.45
2023-03-29T04:13:27.304Z,78.49
2023-03-29T04:15:58.237Z,78.36
2023-03-29T04:18:29.210Z,78.59
2023-03-29T04:20:58.454Z,78.72
2023-03-29T04:23:27.390Z,79.06
2023-03-29T04:25:56.875Z,79.53
2023-03-29T04:28:25.851Z,79.36
2023-03-29T04:30:54.847Z,79.29
2023-03-29T04:33:23.777Z,79.53
2023-03-29T04:35:52.887Z,79.59
2023-03-29T04:38:23.425Z,79.77
2023-03-29T04:40:55.081Z,79.82
2023-03-29T04:43:24.086Z,79.74
2023-03-29T04:45:53.064Z,79.14
2023-03-29T04:48:22.706Z,79.09
2023-03-29T04:50:52.377Z,79.39
2023-03-29T04:53:22.360Z,79.68
2023-03-29T04:55:51.461Z,79.47
2023-03-29T04:58:22.535Z,79.36
2023-03-29T05:00:56.007Z,79.52
2023-03-29T05:03:25.650Z,79.29
2023-03-29T05:05:54.744Z,79.41
2023-03-29T05:08:24.330Z,79.49
2023-03-29T05:10:53.231Z,79.47
2023-03-29T05:13:22.230Z,79.57
2023-03-29T05:15:52.791Z,79.69
2023-03-29T05:18:22.370Z,79.87
2023-03-29T05:20:53.262Z,79.76
2023-03-29T05:23:23.841Z,79.54
2023-03-29T05:25:55.609Z,78.93
2023-03-29T05:28:24.746Z,78.36
2023-03-29T05:31:02.422Z,77.88
2023-03-29T05:33:31.761Z,77.49
2023-03-29T05:36:03.702Z,76.44
2023-03-29T05:38:35.934Z,76.31
2023-03-29T05:41:06.405Z,76.16
2023-03-29T05:43:35.459Z,75.40
2023-03-29T05:46:05.906Z,74.62
2023-03-29T05:48:36.526Z,74.35
2023-03-29T05:51:05.939Z,73.40
2023-03-29T05:53:35.443Z,72.82
2023-03-29T05:56:04.793Z,72.51
2023-03-29T05:58:33.843Z,72.32
2023-03-29T06:01:04.745Z,71.16
2023-03-29T06:03:34.097Z,70.62
2023-03-29T06:06:04.429Z,69.90
2023-03-29T06:08:35.256Z,69.48
2023-03-29T06:11:06.708Z,69.16
2023-03-29T06:13:37.238Z,69.17
2023-03-29T06:16:06.895Z,69.50
2023-03-29T06:18:36.835Z,69.55
2023-03-29T06:21:08.076Z,69.25
2023-03-29T06:23:37.189Z,69.24
2023-03-29T06:26:06.838Z,68.86
2023-03-29T06:28:35.833Z,68.32
2023-03-29T06:31:05.696Z,68.22
2023-03-29T06:33:37.306Z,67.64
2023-03-29T06:36:06.981Z,67.28
2023-03-29T06:38:36.444Z,66.76
2023-03-29T06:41:07.931Z,66.04
2023-03-29T06:43:37.916Z,66.58
2023-03-29T06:46:12.430Z,66.39
2023-03-29T06:48:41.830Z,66.15
2023-03-29T06:51:10.836Z,66.26
2023-03-29T06:53:39.827Z,66.38
2023-03-29T06:56:09.880Z,66.15
2023-03-29T06:58:39.466Z,66.23
2023-03-29T07:01:08.470Z,66.26
2023-03-29T07:03:39.370Z,66.70
2023-03-29T07:06:12.501Z,66.78
2023-03-29T07:08:45.282Z,66.33
2023-03-29T07:11:15.293Z,65.48
2023-03-29T07:13:44.928Z,64.22
2023-03-29T07:16:14.123Z,64.05
2023-03-29T07:18:44.348Z,63.50
2023-03-29T07:21:13.642Z,63.24
2023-03-29T07:23:42.936Z,62.63
2023-03-29T07:26:12.651Z,61.94
2023-03-29T07:28:42.605Z,62.21
2023-03-29T07:31:12.284Z,61.07
2023-03-29T07:33:41.798Z,59.82
2023-03-29T07:36:12.183Z,59.10
2023-03-29T07:38:41.934Z,58.69
2023-03-29T07:41:10.921Z,58.58
2023-03-29T07:43:39.937Z,58.56
2023-03-29T07:46:10.276Z,58.48
2023-03-29T07:48:39.468Z,58.56
2023-03-29T07:51:08.690Z,57.56
2023-03-29T07:53:38.675Z,56.70
2023-03-29T07:56:09.036Z,55.80
2023-03-29T07:58:38.052Z,55.20
2023-03-29T08:01:08.547Z,54.12
2023-03-29T08:03:37.609Z,53.88
2023-03-29T08:06:07.018Z,53.59
2023-03-29T08:08:36.830Z,52.95
2023-03-29T08:11:08.972Z,53.15
2023-03-29T08:13:37.927Z,53.60
2023-03-29T08:16:07.694Z,53.37
2023-03-29T08:18:36.611Z,53.98
2023-03-29T08:21:05.870Z,53.22
2023-03-29T08:23:35.763Z,51.78
2023-03-29T08:26:04.943Z,51.65
2023-03-29T08:28:33.826Z,50.97
2023-03-29T08:31:03.101Z,51.15
2023-03-29T08:33:32.594Z,50.81
2023-03-29T08:36:02.098Z,51.13
2023-03-29T08:38:31.184Z,51.07
2023-03-29T08:41:00.959Z,51.25
2023-03-29T08:43:36.121Z,50.39
2023-03-29T08:46:40.658Z,49.78
2023-03-29T08:49:12.519Z,49.45
2023-03-29T08:51:47.884Z,49.30
2023-03-29T08:54:28.262Z,50.02
2023-03-29T08:57:08.572Z,49.73
2023-03-29T08:59:39.618Z,48.46
2023-03-29T09:02:17.886Z,48.72
2023-03-29T09:04:48.701Z,48.79
2023-03-29T09:07:17.871Z,48.73
2023-03-29T09:09:46.894Z,48.34
2023-03-29T09:12:48.911Z,48.43
2023-03-29T09:15:42.566Z,48.51
2023-03-29T09:18:22.088Z,48.14
2023-03-29T09:20:59.141Z,47.67
2023-03-29T09:23:58.287Z,47.22
2023-03-29T09:26:59.728Z,46.86
2023-03-29T09:29:37.751Z,47.50
2023-03-29T09:32:19.705Z,47.54
2023-03-29T09:35:14.437Z,47.78
2023-03-29T09:37:43.395Z,46.89
2023-03-29T09:40:17.807Z,47.34
2023-03-29T09:42:51.151Z,47.77
2023-03-29T09:45:20.321Z,47.15
2023-03-29T09:47:58.201Z,46.70
2023-03-29T09:50:35.406Z,46.59
2023-03-29T09:53:05.627Z,46.17
2023-03-29T09:55:37.343Z,46.27
2023-03-29T09:58:32.933Z,46.51
2023-03-29T10:01:08.919Z,45.91
2023-03-29T10:03:39.963Z,45.51
2023-03-29T10:06:12.674Z,45.64
2023-03-29T10:08:51.838Z,45.08
2023-03-29T10:11:29.006Z,44.88
2023-03-29T10:14:03.089Z,44.80
2023-03-29T10:16:42.534Z,44.00
2023-03-29T10:19:23.365Z,44.37
2023-03-29T10:21:54.077Z,44.58
2023-03-29T10:24:25.746Z,44.19
2023-03-29T10:27:00.244Z,44.32
2023-03-29T10:29:42.721Z,44.38
2023-03-29T10:32:17.540Z,43.61
2023-03-29T10:34:47.931Z,44.68
2023-03-29T10:37:19.666Z,44.79
2023-03-29T10:39:49.132Z,44.57
2023-03-29T10:42:23.792Z,44.34
2023-03-29T10:44:58.442Z,43.85
2023-03-29T10:47:31.743Z,43.46
2023-03-29T10:50:01.628Z,43.37
2023-03-29T10:52:30.609Z,43.90
2023-03-29T10:55:00.556Z,44.32
2023-03-29T10:57:58.827Z,43.86
2023-03-29T11:00:56.956Z,43.07
2023-03-29T11:03:33.930Z,43.92
2023-03-29T11:06:21.156Z,42.87
2023-03-29T11:08:57.610Z,42.34
2023-03-29T11:11:47.981Z,42.51
2023-03-29T11:14:41.453Z,42.65
2023-03-29T11:17:19.492Z,42.42
2023-03-29T11:19:56.650Z,42.28
2023-03-29T11:22:36.584Z,41.43
2023-03-29T11:25:30.188Z,41.51
2023-03-29T11:28:05.266Z,41.65
2023-03-29T11:30:48.451Z,39.95
2023-03-29T11:33:34.633Z,40.20
2023-03-29T11:36:33.841Z,40.44
2023-03-29T11:39:22.313Z,40.13
2023-03-29T11:41:56.431Z,39.22
2023-03-29T11:44:30.529Z,38.69
2023-03-29T11:47:05.173Z,38.99
2023-03-29T11:49:41.852Z,38.93
2023-03-29T11:52:24.559Z,38.92
2023-03-29T11:54:56.172Z,39.14
2023-03-29T11:57:39.146Z,38.76
2023-03-29T12:00:15.795Z,37.93
2023-03-29T12:02:48.288Z,37.16
2023-03-29T12:05:27.510Z,36.42
2023-03-29T12:08:00.086Z,36.03
2023-03-29T12:11:01.539Z,35.52
2023-03-29T12:13:36.905Z,34.47
2023-03-29T12:16:23.958Z,33.67
2023-03-29T12:18:58.283Z,33.89
2023-03-29T12:21:30.054Z,33.88
2023-03-29T12:23:59.037Z,33.26
2023-03-29T12:26:46.036Z,32.85
2023-03-29T12:29:33.791Z,33.65
2023-03-29T12:32:15.089Z,34.57
2023-03-29T12:34:53.102Z,34.86
2023-03-29T12:37:36.293Z,35.21
2023-03-29T12:40:17.744Z,35.65
2023-03-29T12:43:07.046Z,35.38
2023-03-29T12:45:43.049Z,35.84
2023-03-29T12:48:19.051Z,36.58
2023-03-29T12:51:01.224Z,37.08
2023-03-29T12:53:43.491Z,37.51
2023-03-29T12:56:16.357Z,37.70
2023-03-29T12:59:17.745Z,37.95
2023-03-29T13:02:00.294Z,38.68
2023-03-29T13:05:25.077Z,38.75
2023-03-29T13:07:56.092Z,39.58
2023-03-29T13:10:37.891Z,39.90
2023-03-29T13:13:30.913Z,40.62
2023-03-29T13:16:18.819Z,40.34
2023-03-29T13:19:08.268Z,40.09
2023-03-29T13:21:46.556Z,40.35
2023-03-29T13:25:04.422Z,40.27
2023-03-29T13:27:48.835Z,39.67
2023-03-29T13:30:46.190Z,39.14
2023-03-29T13:33:38.266Z,38.63
2023-03-29T13:36:37.585Z,38.17
2023-03-29T13:39:07.612Z,37.21
2023-03-29T13:41:39.098Z,36.93
2023-03-29T13:44:38.913Z,37.76
2023-03-29T13:47:19.687Z,37.87
2023-03-29T13:49:54.791Z,39.04
2023-03-29T13:52:51.403Z,39.58
2023-03-29T13:55:27.055Z,39.72
2023-03-29T13:58:02.779Z,39.61
2023-03-29T14:00:40.180Z,40.08
2023-03-29T14:03:15.652Z,39.46
2023-03-29T14:05:50.816Z,40.18
2023-03-29T14:08:39.455Z,41.30
2023-03-29T14:11:19.916Z,41.28
2023-03-29T14:13:52.835Z,42.42
2023-03-29T14:16:22.249Z,42.34
2023-03-29T14:18:52.367Z,42.71
2023-03-29T14:21:21.750Z,42.77
2023-03-29T14:23:55.859Z,42.95
2023-03-29T14:26:30.682Z,42.78
2023-03-29T14:29:01.468Z,42.80
2023-03-29T14:31:33.554Z,42.93
2023-03-29T14:34:06.812Z,42.77
2023-03-29T14:36:36.495Z,42.95
2023-03-29T14:39:23.840Z,43.16
2023-03-29T14:41:59.675Z,43.09
2023-03-29T14:44:33.233Z,42.94
2023-03-29T14:47:03.414Z,43.34
2023-03-29T14:49:32.747Z,43.97
2023-03-29T14:52:02.351Z,43.61
2023-03-29T14:54:34.867Z,43.82
2023-03-29T14:57:07.403Z,44.12
2023-03-29T14:59:42.931Z,44.90
2023-03-29T15:02:48.590Z,44.58
2023-03-29T15:06:04.215Z,45.02
2023-03-29T15:08:38.578Z,45.07
2023-03-29T15:11:18.929Z,45.00
2023-03-29T15:13:49.305Z,44.26
2023-03-29T15:16:22.799Z,44.02
2023-03-29T15:18:53.027Z,44.16
2023-03-29T15:21:23.008Z,44.57
2023-03-29T15:24:03.429Z,44.26
2023-03-29T15:26:35.324Z,44.26
2023-03-29T15:29:23.335Z,44.39
2023-03-29T15:31:57.411Z,44.83
2023-03-29T15:34:29.537Z,43.67
2023-03-29T15:36:59.207Z,43.61
2023-03-29T15:39:29.593Z,43.43
2023-03-29T15:41:58.786Z,43.96
2023-03-29T15:44:32.555Z,43.81
2023-03-29T15:47:01.657Z,43.77
2023-03-29T15:49:30.789Z,44.24
2023-03-29T15:51:59.723Z,45.05
2023-03-29T15:54:31.132Z,44.80
2023-03-29T15:57:07.362Z,45.52
2023-03-29T15:59:36.691Z,46.00
2023-03-29T16:02:06.389Z,46.33
2023-03-29T16:04:35.414Z,45.86
2023-03-29T16:07:10.962Z,46.19
2023-03-29T16:09:39.929Z,46.60
2023-03-29T16:12:10.334Z,46.42
2023-03-29T16:14:39.586Z,46.33
2023-03-29T16:17:08.454Z,47.00
2023-03-29T16:19:37.819Z,47.09
2023-03-29T16:22:07.592Z,47.55
2023-03-29T16:24:36.860Z,47.97
2023-03-29T16:27:05.922Z,48.03
2023-03-29T16:29:35.067Z,48.10
2023-03-29T16:32:06.620Z,48.16
2023-03-29T16:34:36.119Z,48.50
2023-03-29T16:37:05.166Z,48.82
2023-03-29T16:39:34.479Z,49.97
2023-03-29T16:42:04.007Z,50.46
2023-03-29T16:44:32.933Z,50.56
2023-03-29T16:47:02.180Z,51.30
2023-03-29T16:49:31.381Z,51.67
2023-03-29T16:52:00.256Z,52.25
2023-03-29T16:54:29.735Z,52.04
2023-03-29T16:56:59.040Z,52.40
2023-03-29T16:59:27.983Z,53.25
2023-03-29T17:01:57.025Z,52.82
2023-03-29T17:04:26.461Z,53.03
2023-03-29T17:06:55.834Z,53.02
2023-03-29T17:09:25.812Z,53.50
2023-03-29T17:11:56.140Z,53.87
2023-03-29T17:14:25.589Z,54.12
2023-03-29T17:16:54.542Z,54.07
2023-03-29T17:19:23.465Z,54.52
2023-03-29T17:21:52.398Z,55.29
2023-03-29T17:24:21.469Z,55.58
2023-03-29T17:26:50.633Z,55.51
2023-03-29T17:29:19.630Z,55.73
2023-03-29T17:31:48.678Z,55.83
2023-03-29T17:34:19.420Z,55.97
2023-03-29T17:36:49.110Z,56.38
2023-03-29T17:39:18.879Z,56.65
2023-03-29T17:41:48.210Z,56.71
2023-03-29T17:44:17.230Z,56.83
2023-03-29T17:46:46.791Z,57.13
2023-03-29T17:49:15.809Z,57.51
2023-03-29T17:51:44.808Z,57.58
2023-03-29T17:54:13.802Z,58.01
2023-03-29T17:56:42.817Z,58.70
2023-03-29T17:59:11.802Z,58.69
2023-03-29T18:01:40.932Z,59.15
2023-03-29T18:04:10.717Z,59.67
2023-03-29T18:06:39.817Z,60.39
2023-03-29T18:09:10.395Z,60.87
2023-03-29T18:11:39.526Z,61.74
2023-03-29T18:14:08.429Z,62.66
2023-03-29T18:16:37.473Z,63.31
2023-03-29T18:19:06.543Z,64.16
2023-03-29T18:21:35.563Z,63.78
2023-03-29T18:24:04.555Z,64.50
2023-03-29T18:26:33.572Z,64.67
2023-03-29T18:29:02.463Z,65.03
2023-03-29T18:31:31.418Z,65.56
2023-03-29T18:34:00.615Z,65.62
2023-03-29T18:36:30.477Z,64.78
2023-03-29T18:39:05.826Z,64.85
2023-03-29T18:41:37.304Z,64.94
2023-03-29T18:44:07.875Z,65.36
2023-03-29T18:46:37.311Z,65.21
2023-03-29T18:49:07.876Z,65.29
2023-03-29T18:51:36.832Z,64.41
2023-03-29T18:54:06.171Z,64.01
2023-03-29T18:56:36.007Z,64.04
2023-03-29T18:59:06.504Z,64.09
2023-03-29T19:01:35.973Z,63.73
2023-03-29T19:04:05.716Z,63.57
2023-03-29T19:06:34.753Z,63.31
2023-03-29T19:09:05.477Z,63.61
2023-03-29T19:11:36.137Z,63.44
2023-03-29T19:14:08.373Z,63.52
2023-03-29T19:16:37.357Z,63.41
2023-03-29T19:19:07.293Z,63.09
2023-03-29T19:21:36.940Z,63.26
2023-03-29T19:24:07.861Z,63.28
2023-03-29T19:26:37.441Z,63.36
2023-03-29T19:29:06.401Z,63.71
2023-03-29T19:31:37.924Z,63.90
2023-03-29T19:34:09.677Z,64.17
2023-03-29T19:36:38.775Z,64.49
2023-03-29T19:39:07.751Z,64.89
2023-03-29T19:41:36.738Z,64.96
2023-03-29T19:44:05.923Z,65.17
2023-03-29T19:46:34.929Z,65.45
2023-03-29T19:49:05.675Z,65.35
2023-03-29T19:51:34.774Z,65.21
2023-03-29T19:54:03.844Z,65.35
2023-03-29T19:56:33.457Z,65.35
2023-03-29T19:59:02.449Z,65.41
2023-03-29T20:01:32.444Z,65.36
2023-03-29T20:04:02.605Z,65.28
2023-03-29T20:06:31.693Z,65.43
2023-03-29T20:09:00.701Z,65.57
2023-03-29T20:11:29.693Z,65.61
2023-03-29T20:13:58.692Z,65.79
2023-03-29T20:16:27.810Z,65.85
2023-03-29T20:18:56.804Z,65.91
2023-03-29T20:21:25.714Z,65.96
2023-03-29T20:23:56.144Z,66.05
2023-03-29T20:26:25.630Z,66.18
2023-03-29T20:28:54.553Z,65.82
2023-03-29T20:31:23.864Z,66.11
2023-03-29T20:33:53.644Z,66.13
2023-03-29T20:36:23.476Z,66.25
2023-03-29T20:38:55.328Z,66.09
2023-03-29T20:41:24.405Z,66.22
2023-03-29T20:43:59.034Z,66.54
2023-03-29T20:46:35.072Z,66.50
2023-03-29T20:49:07.434Z,66.63
2023-03-29T20:51:38.001Z,66.99
2023-03-29T20:54:10.032Z,66.79
2023-03-29T20:56:40.163Z,66.90
2023-03-29T20:59:12.250Z,66.96
2023-03-29T21:01:42.489Z,67.06
2023-03-29T21:04:11.536Z,67.18
2023-03-29T21:06:40.514Z,67.18
2023-03-29T21:09:09.478Z,67.23
2023-03-29T21:11:38.680Z,67.37
2023-03-29T21:14:09.554Z,67.34
2023-03-29T21:16:41.912Z,67.39
2023-03-29T21:19:11.004Z,67.62
2023-03-29T21:21:41.647Z,67.70
2023-03-29T21:24:13.547Z,67.96
2023-03-29T21:26:42.594Z,68.25
2023-03-29T21:29:11.589Z,68.26
2023-03-29T21:31:40.952Z,68.37
2023-03-29T21:34:10.203Z,68.37
2023-03-29T21:36:39.910Z,68.37
2023-03-29T21:39:08.804Z,68.22
2023-03-29T21:41:37.870Z,68.21
2023-03-29T21:44:07.012Z,68.13
2023-03-29T21:46:36.155Z,67.84
2023-03-29T21:49:05.180Z,67.80
2023-03-29T21:51:34.197Z,67.80
2023-03-29T21:54:03.402Z,67.91
2023-03-29T21:56:32.335Z,68.08
2023-03-29T21:59:01.401Z,68.44
2023-03-29T22:01:31.063Z,68.66
2023-03-29T22:04:00.020Z,69.65
2023-03-29T22:06:29.005Z,70.21
2023-03-29T22:09:00.885Z,70.03
2023-03-29T22:11:31.197Z,70.65
2023-03-29T22:14:00.309Z,70.49
2023-03-29T22:16:31.497Z,71.15
2023-03-29T22:19:00.539Z,71.85
2023-03-29T22:21:32.606Z,71.92
2023-03-29T22:24:01.726Z,72.45
2023-03-29T22:26:32.654Z,73.30
2023-03-29T22:29:01.728Z,72.88
2023-03-29T22:31:32.020Z,72.47
2023-03-29T22:34:02.871Z,72.31
2023-03-29T22:36:32.011Z,71.96
2023-03-29T22:39:00.990Z,72.24
2023-03-29T22:41:30.109Z,72.25
2023-03-29T22:44:02.893Z,72.68
2023-03-29T22:46:31.992Z,72.78
2023-03-29T22:49:00.991Z,73.12
2023-03-29T22:51:30.099Z,72.65
2023-03-29T22:53:59.495Z,72.73
2023-03-29T22:56:28.703Z,72.77
2023-03-29T22:58:57.564Z,72.65
2023-03-29T23:01:26.757Z,72.62
2023-03-29T23:03:55.799Z,72.75
2023-03-29T23:06:24.770Z,73.06
2023-03-29T23:08:53.727Z,73.15
2023-03-29T23:11:22.939Z,73.12
2023-03-29T23:13:52.629Z,72.67
2023-03-29T23:16:21.820Z,72.33
2023-03-29T23:18:50.875Z,72.21
2023-03-29T23:21:19.769Z,72.33
2023-03-29T23:23:49.514Z,72.06
2023-03-29T23:26:18.645Z,72.26
2023-03-29T23:28:47.629Z,72.42
2023-03-29T23:31:18.718Z,72.64
2023-03-29T23:33:47.755Z,72.61
2023-03-29T23:36:18.363Z,72.20
2023-03-29T23:38:47.989Z,72.59
2023-03-29T23:41:17.876Z,72.50
2023-03-29T23:43:50.222Z,72.50
2023-03-29T23:46:29.167Z,72.67
2023-03-29T23:49:00.059Z,72.74
2023-03-29T23:51:30.745Z,72.82
2023-03-29T23:53:59.611Z,72.55
2023-03-29T23:56:29.128Z,72.34
2023-03-29T23:58:58.077Z,72.34
